Decoded Metar for KLAS (LAS VEGAS in NV, USA) (IATA:LAS) | Meteo·Mobile Aviation Weather
aviador You're here:

KLAS Decoded Metar

LAS VEGAS in NV, USA
Report Time2019-03-21 15:56:00
UTC Time2019-03-21 16:11:55
Flight Rules vfr VFR
Wind180° at 11 kt
W.Decomp.*RWY 19: 10.0 kt HW 4.6 kt LCW
RWY 25: 1.0 kt HW 11 kt LCW
W.Rank180° ranks 4
Current wind is above 180° avg. (8.0)
Visibility9999 m
Phenomena:N/A
Clouds:Few 015 Hf
Scattered 060 Hf
Broken 100 Hf
Expected CloudBase > 3,600 ft AGL from Temp-Dew spread
Ceiling10,000 ft
Temp12°C (ISA +1)
Dew Point03°C (54% RH)
AAT6.5°C
QNH1014 hPa
Density Alt2,300 ft
Elevation2,087 ft
Report Wrong Elevation
Raw Report
KLAS 211556Z 18011KT 10SM FEW015 SCT060 BKN100 12/03 A2994 RMK AO2
SLP134 T01170028=

Extra information for KLAS:More info

Metar Taf Metar & Taf Last 4 Metars F.Rules Stats Wind Profile Meteogram Temp Stats Airport Information Weather charts Add Link Nearby VenuesMetar ALERT Operation Metar Decoded Social comments

AIRNAV info for KLAS